createdAt,value
2018-08-14T00:00:32.703Z,18.60
2018-08-14T00:03:02.906Z,18.60
2018-08-14T00:05:31.854Z,18.60
2018-08-14T00:08:00.795Z,18.60
2018-08-14T00:10:29.786Z,18.60
2018-08-14T00:12:59.036Z,18.50
2018-08-14T00:15:28.234Z,18.50
2018-08-14T00:17:57.224Z,18.50
2018-08-14T00:20:26.178Z,18.50
2018-08-14T00:22:55.146Z,18.60
2018-08-14T00:25:24.115Z,18.50
2018-08-14T00:27:54.070Z,18.50
2018-08-14T00:30:26.978Z,18.50
2018-08-14T00:32:56.906Z,18.40
2018-08-14T00:35:25.893Z,18.30
2018-08-14T00:37:54.885Z,18.30
2018-08-14T00:40:24.410Z,18.30
2018-08-14T00:42:56.170Z,18.30
2018-08-14T00:45:25.406Z,18.30
2018-08-14T00:47:54.378Z,18.30
2018-08-14T00:50:23.406Z,18.20
2018-08-14T00:52:52.414Z,18.30
2018-08-14T00:55:22.510Z,18.30
2018-08-14T00:57:51.831Z,18.30
2018-08-14T01:00:25.458Z,18.30
2018-08-14T01:02:54.630Z,18.20
2018-08-14T01:05:23.612Z,18.20
2018-08-14T01:07:52.583Z,18.20
2018-08-14T01:10:21.526Z,18.20
2018-08-14T01:12:52.550Z,18.10
2018-08-14T01:15:23.245Z,18.20
2018-08-14T01:17:53.386Z,18.00
2018-08-14T01:20:23.467Z,18.10
2018-08-14T01:22:52.514Z,18.00
2018-08-14T01:25:21.466Z,18.00
2018-08-14T01:27:51.495Z,18.00
2018-08-14T01:30:24.784Z,18.00
2018-08-14T01:32:53.745Z,17.90
2018-08-14T01:35:22.712Z,17.90
2018-08-14T01:37:51.634Z,17.90
2018-08-14T01:40:20.675Z,17.90
2018-08-14T01:42:49.646Z,17.90
2018-08-14T01:45:18.606Z,17.90
2018-08-14T01:47:47.609Z,17.80
2018-08-14T01:50:20.594Z,17.80
2018-08-14T01:52:49.574Z,17.80
2018-08-14T01:55:19.477Z,17.70
2018-08-14T01:57:48.532Z,17.70
2018-08-14T02:00:18.558Z,17.70
2018-08-14T02:02:47.830Z,17.70
2018-08-14T02:05:17.089Z,17.70
2018-08-14T02:07:46.330Z,17.70
2018-08-14T02:10:17.046Z,17.70
2018-08-14T02:12:46.202Z,17.60
2018-08-14T02:15:16.922Z,17.60
2018-08-14T02:17:46.397Z,17.60
2018-08-14T02:20:19.879Z,17.60
2018-08-14T02:22:49.998Z,17.60
2018-08-14T02:25:19.122Z,17.60
2018-08-14T02:27:48.304Z,17.50
2018-08-14T02:30:17.778Z,17.50
2018-08-14T02:32:47.246Z,17.40
2018-08-14T02:35:16.399Z,17.40
2018-08-14T02:37:45.676Z,17.40
2018-08-14T02:40:18.198Z,17.40
2018-08-14T02:42:48.130Z,17.30
2018-08-14T02:45:17.447Z,17.20
2018-08-14T02:47:46.655Z,17.20
2018-08-14T02:50:16.551Z,17.20
2018-08-14T02:52:45.770Z,17.20
2018-08-14T02:55:21.317Z,17.20
2018-08-14T02:57:50.848Z,17.20
2018-08-14T03:00:23.879Z,17.20
2018-08-14T03:02:53.184Z,17.20
2018-08-14T03:05:22.377Z,17.20
2018-08-14T03:07:51.600Z,17.10
2018-08-14T03:10:20.938Z,17.10
2018-08-14T03:12:50.108Z,17.00
2018-08-14T03:15:20.746Z,17.00
2018-08-14T03:17:55.734Z,17.10
2018-08-14T03:20:24.918Z,17.10
2018-08-14T03:22:54.112Z,17.10
2018-08-14T03:25:23.222Z,17.10
2018-08-14T03:27:52.365Z,17.10
2018-08-14T03:30:21.543Z,17.10
2018-08-14T03:32:50.742Z,17.10
2018-08-14T03:35:19.830Z,17.10
2018-08-14T03:37:48.958Z,17.10
2018-08-14T03:40:19.111Z,17.10
2018-08-14T03:42:49.347Z,17.10
2018-08-14T03:45:18.622Z,17.10
2018-08-14T03:47:47.851Z,17.10
2018-08-14T03:50:17.250Z,17.10
2018-08-14T03:52:46.422Z,17.20
2018-08-14T03:55:18.047Z,17.20
2018-08-14T03:57:47.301Z,17.20
2018-08-14T04:00:18.142Z,17.20
2018-08-14T04:02:47.316Z,17.20
2018-08-14T04:05:16.550Z,17.20
2018-08-14T04:07:45.743Z,17.20
2018-08-14T04:10:15.190Z,17.20
2018-08-14T04:12:44.474Z,17.20
2018-08-14T04:15:14.544Z,17.30
2018-08-14T04:17:43.767Z,17.30
2018-08-14T04:20:13.769Z,17.20
2018-08-14T04:22:43.284Z,17.10
2018-08-14T04:25:12.705Z,17.20
2018-08-14T04:27:41.919Z,17.20
2018-08-14T04:30:13.097Z,17.30
2018-08-14T04:32:43.626Z,17.20
2018-08-14T04:35:13.107Z,17.10
2018-08-14T04:37:42.634Z,17.10
2018-08-14T04:40:13.503Z,17.20
2018-08-14T04:42:43.354Z,17.20
2018-08-14T04:45:12.535Z,17.30
2018-08-14T04:47:41.765Z,17.30
2018-08-14T04:50:13.505Z,17.30
2018-08-14T04:52:43.053Z,17.30
2018-08-14T04:55:12.783Z,17.30
2018-08-14T04:57:42.597Z,17.30
2018-08-14T05:00:15.806Z,17.30
2018-08-14T05:02:45.934Z,17.30
2018-08-14T05:05:15.550Z,17.30
2018-08-14T05:07:44.574Z,17.30
2018-08-14T05:10:14.906Z,17.40
2018-08-14T05:12:43.906Z,17.40
2018-08-14T05:15:12.862Z,17.40
2018-08-14T05:17:42.049Z,17.40
2018-08-14T05:20:12.670Z,17.40
2018-08-14T05:22:42.102Z,17.50
2018-08-14T05:25:11.467Z,17.50
2018-08-14T05:27:40.953Z,17.60
2018-08-14T05:30:13.264Z,17.60
2018-08-14T05:32:43.163Z,17.50
2018-08-14T05:35:12.168Z,17.50
2018-08-14T05:37:41.253Z,17.50
2018-08-14T05:40:11.007Z,17.40
2018-08-14T05:42:40.375Z,17.50
2018-08-14T05:45:11.444Z,17.40
2018-08-14T05:47:40.533Z,17.40
2018-08-14T05:50:11.990Z,17.50
2018-08-14T05:52:41.654Z,17.50
2018-08-14T05:55:11.195Z,17.50
2018-08-14T05:57:40.170Z,17.50
2018-08-14T06:00:14.141Z,17.60
2018-08-14T06:02:43.089Z,17.70
2018-08-14T06:05:12.010Z,17.70
2018-08-14T06:07:41.000Z,17.80
2018-08-14T06:10:10.935Z,17.80
2018-08-14T06:12:39.850Z,17.80
2018-08-14T06:15:11.491Z,17.80
2018-08-14T06:17:40.557Z,17.80
2018-08-14T06:20:13.906Z,17.90
2018-08-14T06:22:43.697Z,17.90
2018-08-14T06:25:12.923Z,17.90
2018-08-14T06:27:41.957Z,18.00
2018-08-14T06:30:16.422Z,18.00
2018-08-14T06:32:46.001Z,18.10
2018-08-14T06:35:14.946Z,18.10
2018-08-14T06:37:43.946Z,18.10
2018-08-14T06:40:14.447Z,18.20
2018-08-14T06:42:43.762Z,18.30
2018-08-14T06:45:15.663Z,18.30
2018-08-14T06:47:44.647Z,18.40
2018-08-14T06:50:16.835Z,18.50
2018-08-14T06:52:45.978Z,18.60
2018-08-14T06:55:15.174Z,18.80
2018-08-14T06:57:44.994Z,18.60
2018-08-14T07:00:15.718Z,18.60
2018-08-14T07:02:45.346Z,18.60
2018-08-14T07:05:14.318Z,18.60
2018-08-14T07:07:43.274Z,18.70
2018-08-14T07:10:12.457Z,18.80
2018-08-14T07:12:41.509Z,18.80
2018-08-14T07:15:15.922Z,19.00
2018-08-14T07:17:45.361Z,19.30
2018-08-14T07:20:14.521Z,19.30
2018-08-14T07:22:44.276Z,19.60
2018-08-14T07:25:14.405Z,19.60
2018-08-14T07:27:43.392Z,19.70
2018-08-14T07:30:28.018Z,19.50
2018-08-14T07:32:57.093Z,19.50
2018-08-14T07:35:26.021Z,19.60
2018-08-14T07:37:54.942Z,19.60
2018-08-14T07:40:23.866Z,19.70
2018-08-14T07:42:52.802Z,19.70
2018-08-14T07:45:21.702Z,19.70
2018-08-14T07:47:50.638Z,19.60
2018-08-14T07:50:19.601Z,19.70
2018-08-14T07:52:48.569Z,19.80
2018-08-14T07:55:17.625Z,20.00
2018-08-14T07:57:46.644Z,20.00
2018-08-14T08:00:17.912Z,20.00
2018-08-14T08:02:47.830Z,20.00
2018-08-14T08:05:17.041Z,20.30
2018-08-14T08:07:45.977Z,20.30
2018-08-14T08:10:15.864Z,20.30
2018-08-14T08:12:44.813Z,20.40
2018-08-14T08:15:15.514Z,20.40
2018-08-14T08:17:44.939Z,20.30
2018-08-14T08:20:24.059Z,20.10
2018-08-14T08:22:53.190Z,20.30
2018-08-14T08:25:22.381Z,20.40
2018-08-14T08:27:51.331Z,20.80
2018-08-14T08:30:20.265Z,21.00
2018-08-14T08:32:49.249Z,21.00
2018-08-14T08:35:18.210Z,21.00
2018-08-14T08:37:47.150Z,21.00
2018-08-14T08:40:16.078Z,20.90
2018-08-14T08:42:45.002Z,20.80
2018-08-14T08:45:13.909Z,21.00
2018-08-14T08:47:42.847Z,21.00
2018-08-14T08:50:13.741Z,21.10
2018-08-14T08:52:43.430Z,21.10
2018-08-14T08:55:15.474Z,21.00
2018-08-14T08:57:44.721Z,21.00
2018-08-14T09:00:15.226Z,21.30
2018-08-14T09:02:44.213Z,21.30
2018-08-14T09:05:15.398Z,21.40
2018-08-14T09:07:44.910Z,21.50
2018-08-14T09:10:13.849Z,21.80
2018-08-14T09:12:43.473Z,22.10
2018-08-14T09:15:13.015Z,22.40
2018-08-14T09:17:42.806Z,22.20
2018-08-14T09:20:13.623Z,21.80
2018-08-14T09:22:42.767Z,21.50
2018-08-14T09:25:13.658Z,21.40
2018-08-14T09:27:43.985Z,21.60
2018-08-14T09:30:14.510Z,21.80
2018-08-14T09:32:43.523Z,22.10
2018-08-14T09:35:14.342Z,22.20
2018-08-14T09:37:43.389Z,22.20
2018-08-14T09:40:15.422Z,22.30
2018-08-14T09:42:44.510Z,22.20
2018-08-14T09:45:13.837Z,22.10
2018-08-14T09:47:43.073Z,22.10
2018-08-14T09:50:15.087Z,22.00
2018-08-14T09:52:44.866Z,22.10
2018-08-14T09:55:14.969Z,22.40
2018-08-14T09:57:44.441Z,22.60
2018-08-14T10:00:23.350Z,22.60
2018-08-14T10:03:56.694Z,23.10
2018-08-14T10:06:31.102Z,23.30
2018-08-14T10:09:00.062Z,23.30
2018-08-14T10:11:28.963Z,23.40
2018-08-14T10:13:57.902Z,23.20
2018-08-14T10:16:26.866Z,22.70
2018-08-14T10:18:58.710Z,22.40
2018-08-14T10:21:27.638Z,22.10
2018-08-14T10:23:56.534Z,22.40
2018-08-14T10:26:25.445Z,23.00
2018-08-14T10:28:54.428Z,23.50
2018-08-14T10:31:23.347Z,23.40
2018-08-14T10:33:52.310Z,23.80
2018-08-14T10:36:21.335Z,24.30
2018-08-14T10:38:50.285Z,24.10
2018-08-14T10:41:19.193Z,23.80
2018-08-14T10:43:48.110Z,23.50
2018-08-14T10:46:17.065Z,23.10
2018-08-14T10:48:45.986Z,22.80
2018-08-14T10:51:14.913Z,22.60
2018-08-14T10:53:43.855Z,22.60
2018-08-14T10:56:12.862Z,22.80
2018-08-14T10:58:41.888Z,23.00
2018-08-14T11:01:10.822Z,23.00
2018-08-14T11:03:39.765Z,22.80
2018-08-14T11:06:08.691Z,22.70
2018-08-14T11:08:37.616Z,22.70
2018-08-14T11:11:08.173Z,22.80
2018-08-14T11:13:37.132Z,22.90
2018-08-14T11:16:06.094Z,23.00
2018-08-14T11:18:35.030Z,23.20
2018-08-14T11:21:03.978Z,23.20
2018-08-14T11:23:32.889Z,23.30
2018-08-14T11:26:01.783Z,23.40
2018-08-14T11:28:30.742Z,23.60
2018-08-14T11:30:59.658Z,24.00
2018-08-14T11:33:28.628Z,24.20
2018-08-14T11:36:03.696Z,24.40
2018-08-14T11:38:32.938Z,24.80
2018-08-14T11:41:03.380Z,24.90
2018-08-14T11:43:32.303Z,24.70
2018-08-14T11:46:01.234Z,24.40
2018-08-14T11:48:30.170Z,24.00
2018-08-14T11:50:59.177Z,23.80
2018-08-14T11:53:28.197Z,23.60
2018-08-14T11:55:57.093Z,23.50
2018-08-14T11:58:26.100Z,23.40
2018-08-14T12:00:55.011Z,23.40
2018-08-14T12:03:23.922Z,23.70
2018-08-14T12:05:52.849Z,23.90
2018-08-14T12:08:21.750Z,24.40
2018-08-14T12:10:50.689Z,24.80
2018-08-14T12:13:19.546Z,24.60
2018-08-14T12:15:48.447Z,24.30
2018-08-14T12:18:17.418Z,23.90
2018-08-14T12:20:46.328Z,23.60
2018-08-14T12:23:15.274Z,23.20
2018-08-14T12:25:44.195Z,23.10
2018-08-14T12:28:13.174Z,23.00
2018-08-14T12:30:42.159Z,22.90
2018-08-14T12:33:11.142Z,22.60
2018-08-14T12:35:40.089Z,22.20
2018-08-14T12:38:09.067Z,21.90
2018-08-14T12:40:37.971Z,21.70
2018-08-14T12:43:07.210Z,21.50
2018-08-14T12:45:36.138Z,21.60
2018-08-14T12:48:05.335Z,21.60
2018-08-14T12:50:34.250Z,21.60
2018-08-14T12:53:03.178Z,21.70
2018-08-14T12:55:32.097Z,22.00
2018-08-14T12:58:01.054Z,22.30
2018-08-14T13:00:30.647Z,22.50
2018-08-14T13:02:59.589Z,22.80
2018-08-14T13:05:28.866Z,23.00
2018-08-14T13:07:58.090Z,23.30
2018-08-14T13:10:27.058Z,23.50
2018-08-14T13:12:55.990Z,23.70
2018-08-14T13:15:24.951Z,23.70
2018-08-14T13:18:10.798Z,23.80
2018-08-14T13:20:40.014Z,24.00
2018-08-14T13:23:11.663Z,24.00
2018-08-14T13:25:40.710Z,23.90
2018-08-14T13:28:10.276Z,23.90
2018-08-14T13:30:39.833Z,23.80
2018-08-14T13:33:08.814Z,23.70
2018-08-14T13:35:37.762Z,23.80
2018-08-14T13:38:06.736Z,23.90
2018-08-14T13:40:35.646Z,24.00
2018-08-14T13:43:04.654Z,23.90
2018-08-14T13:45:33.594Z,24.00
2018-08-14T13:48:02.584Z,24.30
2018-08-14T13:50:31.426Z,24.70
2018-08-14T13:53:00.487Z,25.00
2018-08-14T13:55:29.430Z,25.40
2018-08-14T13:57:58.418Z,25.60
2018-08-14T14:00:28.613Z,25.50
2018-08-14T14:02:57.606Z,25.60
2018-08-14T14:05:26.634Z,26.10
2018-08-14T14:07:55.604Z,26.10
2018-08-14T14:10:24.753Z,25.60
2018-08-14T14:12:53.676Z,25.10
2018-08-14T14:15:23.898Z,24.90
2018-08-14T14:17:53.937Z,24.70
2018-08-14T14:20:25.697Z,24.40
2018-08-14T14:22:54.627Z,24.20
2018-08-14T14:25:23.704Z,23.90
2018-08-14T14:27:52.673Z,23.80
2018-08-14T14:30:21.602Z,23.70
2018-08-14T14:32:50.585Z,23.00
2018-08-14T14:35:19.533Z,22.40
2018-08-14T14:37:48.495Z,22.10
2018-08-14T14:40:21.065Z,22.10
2018-08-14T14:42:51.543Z,22.20
2018-08-14T14:45:20.505Z,22.20
2018-08-14T14:47:49.452Z,22.40
2018-08-14T14:50:18.690Z,22.40
2018-08-14T14:52:47.735Z,22.40
2018-08-14T14:55:18.752Z,22.30
2018-08-14T14:57:47.761Z,22.20
2018-08-14T15:00:21.562Z,22.10
2018-08-14T15:02:54.966Z,22.00
2018-08-14T15:05:24.167Z,21.70
2018-08-14T15:07:53.125Z,21.60
2018-08-14T15:10:22.523Z,21.50
2018-08-14T15:12:51.481Z,21.60
2018-08-14T15:15:20.462Z,21.50
2018-08-14T15:17:50.039Z,21.50
2018-08-14T15:20:24.081Z,21.60
2018-08-14T15:22:54.609Z,21.60
2018-08-14T15:25:24.547Z,21.60
2018-08-14T15:29:10.742Z,21.70
2018-08-14T15:31:42.446Z,21.80
2018-08-14T15:34:21.257Z,21.90
2018-08-14T15:36:54.376Z,21.90
2018-08-14T15:39:23.905Z,22.00
2018-08-14T15:41:53.153Z,22.00
2018-08-14T15:44:22.092Z,22.20
2018-08-14T15:46:51.043Z,22.30
2018-08-14T15:49:20.112Z,22.50
2018-08-14T15:51:49.128Z,22.80
2018-08-14T15:54:18.467Z,23.00
2018-08-14T15:56:48.171Z,23.40
2018-08-14T15:59:17.158Z,24.30
2018-08-14T16:01:46.895Z,24.20
2018-08-14T16:04:16.917Z,23.80
2018-08-14T16:06:46.046Z,23.60
2018-08-14T16:09:17.814Z,23.50
2018-08-14T16:11:47.533Z,23.20
2018-08-14T16:14:16.540Z,23.10
2018-08-14T16:16:45.535Z,22.90
2018-08-14T16:19:15.671Z,22.80
2018-08-14T16:21:44.645Z,22.70
2018-08-14T16:24:15.532Z,22.60
2018-08-14T16:26:44.981Z,22.60
2018-08-14T16:29:13.933Z,22.50
2018-08-14T16:31:42.893Z,22.50
2018-08-14T16:34:11.877Z,22.50
2018-08-14T16:36:41.021Z,22.50
2018-08-14T16:39:11.995Z,22.50
2018-08-14T16:41:41.197Z,22.40
2018-08-14T16:44:10.242Z,22.40
2018-08-14T16:46:39.312Z,22.30
2018-08-14T16:49:08.794Z,22.30
2018-08-14T16:51:37.736Z,22.30
2018-08-14T16:54:06.657Z,22.30
2018-08-14T16:56:35.584Z,22.30
2018-08-14T16:59:04.513Z,22.20
2018-08-14T17:01:33.528Z,22.10
2018-08-14T17:04:02.420Z,22.10
2018-08-14T17:06:31.378Z,22.00
2018-08-14T17:09:00.253Z,21.80
2018-08-14T17:11:29.169Z,21.70
2018-08-14T17:13:58.074Z,21.60
2018-08-14T17:16:26.986Z,21.50
2018-08-14T17:18:55.922Z,21.40
2018-08-14T17:21:23.740Z,21.40
2018-08-14T17:23:52.809Z,21.30
2018-08-14T17:26:21.782Z,21.30
2018-08-14T17:28:50.779Z,21.50
2018-08-14T17:31:19.813Z,21.70
2018-08-14T17:33:48.758Z,22.00
2018-08-14T17:36:17.757Z,22.20
2018-08-14T17:38:46.759Z,22.00
2018-08-14T17:41:15.734Z,21.90
2018-08-14T17:43:44.735Z,21.70
2018-08-14T17:46:13.683Z,21.70
2018-08-14T17:48:42.626Z,21.60
2018-08-14T17:51:11.570Z,21.50
2018-08-14T17:53:40.731Z,21.40
2018-08-14T17:56:09.846Z,21.30
2018-08-14T17:58:38.769Z,21.10
2018-08-14T18:01:07.734Z,21.10
2018-08-14T18:03:36.637Z,21.00
2018-08-14T18:06:05.594Z,21.00
2018-08-14T18:08:34.562Z,20.90
2018-08-14T18:11:03.666Z,20.90
2018-08-14T18:13:32.574Z,20.80
2018-08-14T18:16:01.497Z,20.70
2018-08-14T18:18:30.422Z,20.70
2018-08-14T18:20:59.439Z,20.70
2018-08-14T18:23:28.457Z,20.70
2018-08-14T18:25:57.410Z,20.70
2018-08-14T18:28:26.342Z,20.50
2018-08-14T18:30:55.363Z,20.60
2018-08-14T18:33:24.453Z,20.60
2018-08-14T18:35:53.327Z,20.40
2018-08-14T18:38:22.234Z,20.40
2018-08-14T18:40:51.196Z,20.40
2018-08-14T18:43:20.127Z,20.40
2018-08-14T18:45:49.105Z,20.30
2018-08-14T18:48:18.031Z,20.30
2018-08-14T18:50:46.953Z,20.30
2018-08-14T18:53:15.926Z,20.30
2018-08-14T18:55:44.988Z,20.30
2018-08-14T18:58:14.013Z,20.20
2018-08-14T19:00:43.045Z,20.20
2018-08-14T19:03:12.121Z,20.20
2018-08-14T19:05:42.257Z,20.10
2018-08-14T19:08:11.468Z,20.10
2018-08-14T19:10:40.602Z,20.10
2018-08-14T19:13:09.538Z,20.00
2018-08-14T19:15:44.251Z,19.90
2018-08-14T19:18:13.261Z,19.90
2018-08-14T19:20:42.420Z,19.90
2018-08-14T19:23:11.657Z,19.90
2018-08-14T19:25:40.651Z,19.80
2018-08-14T19:28:09.760Z,19.80
2018-08-14T19:30:38.693Z,19.80
2018-08-14T19:33:07.884Z,19.70
2018-08-14T19:35:37.386Z,19.70
2018-08-14T19:38:06.398Z,19.70
2018-08-14T19:40:35.378Z,19.70
2018-08-14T19:43:04.403Z,19.60
2018-08-14T19:45:33.324Z,19.60
2018-08-14T19:48:02.277Z,19.50
2018-08-14T19:50:31.193Z,19.50
2018-08-14T19:53:00.138Z,19.40
2018-08-14T19:55:29.128Z,19.50
2018-08-14T19:57:58.181Z,19.50
2018-08-14T20:00:28.205Z,19.40
2018-08-14T20:02:57.766Z,19.30
2018-08-14T20:05:26.713Z,19.30
2018-08-14T20:07:55.818Z,19.30
2018-08-14T20:10:24.822Z,19.30
2018-08-14T20:12:53.842Z,19.30
2018-08-14T20:15:28.290Z,19.30
2018-08-14T20:17:57.282Z,19.30
2018-08-14T20:20:26.222Z,19.20
2018-08-14T20:22:55.522Z,19.10
2018-08-14T20:25:24.660Z,19.10
2018-08-14T20:27:53.628Z,19.10
2018-08-14T20:30:22.584Z,19.00
2018-08-14T20:32:51.555Z,19.10
2018-08-14T20:35:20.535Z,19.00
2018-08-14T20:37:49.518Z,18.90
2018-08-14T20:40:20.187Z,18.90
2018-08-14T20:42:49.158Z,18.90
2018-08-14T20:45:18.062Z,18.90
2018-08-14T20:47:47.050Z,18.90
2018-08-14T20:50:17.534Z,18.80
2018-08-14T20:52:47.014Z,18.80
2018-08-14T20:55:16.813Z,18.70
2018-08-14T20:57:45.861Z,18.60
2018-08-14T21:00:20.550Z,18.60
2018-08-14T21:02:50.233Z,18.60
2018-08-14T21:05:19.588Z,18.50
2018-08-14T21:07:48.591Z,18.50
2018-08-14T21:10:18.205Z,18.40
2018-08-14T21:12:47.182Z,18.40
2018-08-14T21:15:21.170Z,18.40
2018-08-14T21:17:50.198Z,18.30
2018-08-14T21:20:24.540Z,18.10
2018-08-14T21:22:55.540Z,18.10
2018-08-14T21:25:24.658Z,18.00
2018-08-14T21:27:53.749Z,18.00
2018-08-14T21:30:22.864Z,18.00
2018-08-14T21:32:51.915Z,17.90
2018-08-14T21:35:20.954Z,17.80
2018-08-14T21:37:49.970Z,17.70
2018-08-14T21:40:20.198Z,17.70
2018-08-14T21:42:50.229Z,17.60
2018-08-14T21:45:21.995Z,17.60
2018-08-14T21:47:50.971Z,17.50
2018-08-14T21:50:19.906Z,17.50
2018-08-14T21:52:48.915Z,17.60
2018-08-14T21:55:17.941Z,17.50
2018-08-14T21:57:47.096Z,17.40
2018-08-14T22:00:21.263Z,17.30
2018-08-14T22:02:50.689Z,17.30
2018-08-14T22:05:19.695Z,17.30
2018-08-14T22:07:48.658Z,17.30
2018-08-14T22:10:20.094Z,17.30
2018-08-14T22:12:49.589Z,17.20
2018-08-14T22:15:18.651Z,17.10
2018-08-14T22:17:47.902Z,17.10
2018-08-14T22:20:17.197Z,17.00
2018-08-14T22:22:46.696Z,16.80
2018-08-14T22:25:15.945Z,16.90
2018-08-14T22:27:45.121Z,16.90
2018-08-14T22:30:14.682Z,16.80
2018-08-14T22:32:44.507Z,16.70
2018-08-14T22:35:13.485Z,16.60
2018-08-14T22:37:42.466Z,16.60
2018-08-14T22:40:11.429Z,16.50
2018-08-14T22:42:40.489Z,16.60
2018-08-14T22:45:11.012Z,16.60
2018-08-14T22:47:41.120Z,16.60
2018-08-14T22:50:10.671Z,16.60
2018-08-14T22:52:39.941Z,16.60
2018-08-14T22:55:10.464Z,16.60
2018-08-14T22:57:40.376Z,16.60
2018-08-14T23:00:11.959Z,16.60
2018-08-14T23:02:40.981Z,16.60
2018-08-14T23:05:10.283Z,16.60
2018-08-14T23:07:39.260Z,16.70
2018-08-14T23:10:08.924Z,16.70
2018-08-14T23:12:37.914Z,16.60
2018-08-14T23:15:08.874Z,16.60
2018-08-14T23:17:37.946Z,16.60
2018-08-14T23:20:08.915Z,16.60
2018-08-14T23:22:38.139Z,16.60
2018-08-14T23:25:07.810Z,16.70
2018-08-14T23:27:36.757Z,16.80
2018-08-14T23:30:11.527Z,16.90
2018-08-14T23:32:41.031Z,16.80
2018-08-14T23:35:10.242Z,16.70
2018-08-14T23:37:39.571Z,16.70
2018-08-14T23:40:10.669Z,16.70
2018-08-14T23:42:39.616Z,16.70
2018-08-14T23:45:09.389Z,16.70
2018-08-14T23:47:38.334Z,16.70
2018-08-14T23:50:09.402Z,16.70
2018-08-14T23:52:38.502Z,16.70
2018-08-14T23:55:08.630Z,16.60
2018-08-14T23:57:37.954Z,16.60
